sensor_id;sensor_type;location;lat;lon;timestamp;P1;durP1;ratioP1;P2;durP2;ratioP2
55172;SDS011;41061;52.822;6.860;2023-05-07T00:01:52;14.30;;;10.63;;
55172;SDS011;41061;52.822;6.860;2023-05-07T00:04:18;15.02;;;10.50;;
55172;SDS011;41061;52.822;6.860;2023-05-07T00:06:44;14.00;;;10.70;;
55172;SDS011;41061;52.822;6.860;2023-05-07T00:09:10;16.42;;;10.60;;
55172;SDS011;41061;52.822;6.860;2023-05-07T00:11:36;15.73;;;11.00;;
55172;SDS011;41061;52.822;6.860;2023-05-07T00:14:01;16.75;;;10.88;;
55172;SDS011;41061;52.822;6.860;2023-05-07T00:16:27;21.50;;;12.10;;
55172;SDS011;41061;52.822;6.860;2023-05-07T00:18:53;17.30;;;12.15;;
55172;SDS011;41061;52.822;6.860;2023-05-07T00:21:19;16.13;;;11.32;;
55172;SDS011;41061;52.822;6.860;2023-05-07T00:23:46;19.05;;;12.60;;
55172;SDS011;41061;52.822;6.860;2023-05-07T00:26:12;21.85;;;12.82;;
55172;SDS011;41061;52.822;6.860;2023-05-07T00:28:38;17.52;;;12.45;;
55172;SDS011;41061;52.822;6.860;2023-05-07T00:31:04;20.00;;;12.45;;
55172;SDS011;41061;52.822;6.860;2023-05-07T00:33:30;18.75;;;12.52;;
55172;SDS011;41061;52.822;6.860;2023-05-07T00:35:55;20.67;;;13.90;;
55172;SDS011;41061;52.822;6.860;2023-05-07T00:38:21;17.70;;;12.27;;
55172;SDS011;41061;52.822;6.860;2023-05-07T00:40:47;18.30;;;13.23;;
55172;SDS011;41061;52.822;6.860;2023-05-07T00:43:12;18.48;;;13.52;;
55172;SDS011;41061;52.822;6.860;2023-05-07T00:45:38;20.35;;;13.32;;
55172;SDS011;41061;52.822;6.860;2023-05-07T00:48:05;17.15;;;13.07;;
55172;SDS011;41061;52.822;6.860;2023-05-07T00:50:31;21.33;;;14.05;;
55172;SDS011;41061;52.822;6.860;2023-05-07T00:52:58;19.30;;;13.20;;
55172;SDS011;41061;52.822;6.860;2023-05-07T00:55:25;20.67;;;13.32;;
55172;SDS011;41061;52.822;6.860;2023-05-07T00:57:51;16.33;;;12.80;;
55172;SDS011;41061;52.822;6.860;2023-05-07T01:00:17;20.33;;;13.75;;
55172;SDS011;41061;52.822;6.860;2023-05-07T01:02:43;19.38;;;13.77;;
55172;SDS011;41061;52.822;6.860;2023-05-07T01:05:11;21.95;;;14.63;;
55172;SDS011;41061;52.822;6.860;2023-05-07T01:07:39;20.58;;;14.45;;
55172;SDS011;41061;52.822;6.860;2023-05-07T01:10:06;24.33;;;14.63;;
55172;SDS011;41061;52.822;6.860;2023-05-07T01:12:34;22.77;;;15.25;;
55172;SDS011;41061;52.822;6.860;2023-05-07T01:15:02;23.50;;;15.02;;
55172;SDS011;41061;52.822;6.860;2023-05-07T01:17:28;24.42;;;15.77;;
55172;SDS011;41061;52.822;6.860;2023-05-07T01:19:54;21.70;;;15.20;;
55172;SDS011;41061;52.822;6.860;2023-05-07T01:22:30;23.90;;;15.88;;
55172;SDS011;41061;52.822;6.860;2023-05-07T01:25:02;20.55;;;15.52;;
55172;SDS011;41061;52.822;6.860;2023-05-07T01:27:29;24.98;;;16.08;;
55172;SDS011;41061;52.822;6.860;2023-05-07T01:29:55;23.05;;;15.50;;
55172;SDS011;41061;52.822;6.860;2023-05-07T01:32:25;24.00;;;16.30;;
55172;SDS011;41061;52.822;6.860;2023-05-07T01:34:56;23.67;;;15.60;;
55172;SDS011;41061;52.822;6.860;2023-05-07T01:37:23;22.10;;;15.70;;
55172;SDS011;41061;52.822;6.860;2023-05-07T01:39:50;21.80;;;15.43;;
55172;SDS011;41061;52.822;6.860;2023-05-07T01:42:17;26.77;;;17.13;;
55172;SDS011;41061;52.822;6.860;2023-05-07T01:44:42;22.58;;;16.67;;
55172;SDS011;41061;52.822;6.860;2023-05-07T01:47:08;24.65;;;17.17;;
55172;SDS011;41061;52.822;6.860;2023-05-07T01:49:34;27.70;;;17.40;;
55172;SDS011;41061;52.822;6.860;2023-05-07T01:52:01;29.27;;;17.75;;
55172;SDS011;41061;52.822;6.860;2023-05-07T01:54:27;29.05;;;17.83;;
55172;SDS011;41061;52.822;6.860;2023-05-07T01:56:53;25.20;;;17.38;;
55172;SDS011;41061;52.822;6.860;2023-05-07T01:59:20;26.67;;;16.88;;
55172;SDS011;41061;52.822;6.860;2023-05-07T02:01:45;23.55;;;17.52;;
55172;SDS011;41061;52.822;6.860;2023-05-07T02:04:12;28.58;;;17.55;;
55172;SDS011;41061;52.822;6.860;2023-05-07T02:06:38;24.17;;;17.13;;
55172;SDS011;41061;52.822;6.860;2023-05-07T02:09:04;27.88;;;18.27;;
55172;SDS011;41061;52.822;6.860;2023-05-07T02:11:30;26.55;;;18.45;;
55172;SDS011;41061;52.822;6.860;2023-05-07T02:13:56;27.60;;;18.75;;
55172;SDS011;41061;52.822;6.860;2023-05-07T02:16:21;27.13;;;18.40;;
55172;SDS011;41061;52.822;6.860;2023-05-07T02:18:48;30.80;;;19.45;;
55172;SDS011;41061;52.822;6.860;2023-05-07T02:21:14;28.55;;;19.90;;
55172;SDS011;41061;52.822;6.860;2023-05-07T02:23:40;27.20;;;19.58;;
55172;SDS011;41061;52.822;6.860;2023-05-07T02:26:05;29.65;;;20.55;;
55172;SDS011;41061;52.822;6.860;2023-05-07T02:28:31;32.72;;;21.08;;
55172;SDS011;41061;52.822;6.860;2023-05-07T02:30:57;34.55;;;21.35;;
55172;SDS011;41061;52.822;6.860;2023-05-07T02:33:26;29.30;;;20.63;;
55172;SDS011;41061;52.822;6.860;2023-05-07T02:35:51;32.28;;;20.65;;
55172;SDS011;41061;52.822;6.860;2023-05-07T02:38:17;30.55;;;20.42;;
55172;SDS011;41061;52.822;6.860;2023-05-07T02:40:43;36.28;;;20.95;;
55172;SDS011;41061;52.822;6.860;2023-05-07T02:43:09;32.35;;;22.83;;
55172;SDS011;41061;52.822;6.860;2023-05-07T02:45:34;34.58;;;23.42;;
55172;SDS011;41061;52.822;6.860;2023-05-07T02:48:02;35.30;;;22.90;;
55172;SDS011;41061;52.822;6.860;2023-05-07T02:50:28;37.33;;;23.35;;
55172;SDS011;41061;52.822;6.860;2023-05-07T02:52:54;35.70;;;24.27;;
55172;SDS011;41061;52.822;6.860;2023-05-07T02:55:20;36.08;;;23.75;;
55172;SDS011;41061;52.822;6.860;2023-05-07T02:57:46;33.20;;;22.95;;
55172;SDS011;41061;52.822;6.860;2023-05-07T03:00:12;40.50;;;24.67;;
55172;SDS011;41061;52.822;6.860;2023-05-07T03:02:39;38.00;;;23.95;;
55172;SDS011;41061;52.822;6.860;2023-05-07T03:05:05;45.47;;;23.80;;
55172;SDS011;41061;52.822;6.860;2023-05-07T03:07:31;38.30;;;24.73;;
55172;SDS011;41061;52.822;6.860;2023-05-07T03:09:57;41.92;;;25.02;;
55172;SDS011;41061;52.822;6.860;2023-05-07T03:12:23;37.80;;;24.38;;
55172;SDS011;41061;52.822;6.860;2023-05-07T03:14:49;39.13;;;25.00;;
55172;SDS011;41061;52.822;6.860;2023-05-07T03:17:14;42.40;;;25.02;;
55172;SDS011;41061;52.822;6.860;2023-05-07T03:19:41;38.65;;;26.05;;
55172;SDS011;41061;52.822;6.860;2023-05-07T03:22:06;39.28;;;25.65;;
55172;SDS011;41061;52.822;6.860;2023-05-07T03:24:32;39.08;;;24.70;;
55172;SDS011;41061;52.822;6.860;2023-05-07T03:26:58;37.33;;;24.30;;
55172;SDS011;41061;52.822;6.860;2023-05-07T03:29:24;37.33;;;23.75;;
55172;SDS011;41061;52.822;6.860;2023-05-07T03:31:49;39.83;;;25.77;;
55172;SDS011;41061;52.822;6.860;2023-05-07T03:34:15;37.33;;;23.90;;
55172;SDS011;41061;52.822;6.860;2023-05-07T03:36:42;39.63;;;24.35;;
55172;SDS011;41061;52.822;6.860;2023-05-07T03:39:08;35.58;;;24.30;;
55172;SDS011;41061;52.822;6.860;2023-05-07T03:41:33;39.22;;;23.95;;
55172;SDS011;41061;52.822;6.860;2023-05-07T03:43:59;40.95;;;24.85;;
55172;SDS011;41061;52.822;6.860;2023-05-07T03:46:25;40.58;;;23.70;;
55172;SDS011;41061;52.822;6.860;2023-05-07T03:48:51;37.60;;;23.67;;
55172;SDS011;41061;52.822;6.860;2023-05-07T03:51:17;37.05;;;24.38;;
55172;SDS011;41061;52.822;6.860;2023-05-07T03:53:43;36.85;;;23.80;;
55172;SDS011;41061;52.822;6.860;2023-05-07T03:56:08;37.50;;;24.33;;
55172;SDS011;41061;52.822;6.860;2023-05-07T03:58:34;38.35;;;23.25;;
55172;SDS011;41061;52.822;6.860;2023-05-07T04:01:00;36.45;;;23.13;;
55172;SDS011;41061;52.822;6.860;2023-05-07T04:03:26;36.22;;;23.50;;
55172;SDS011;41061;52.822;6.860;2023-05-07T04:05:51;35.10;;;21.88;;
55172;SDS011;41061;52.822;6.860;2023-05-07T04:08:17;31.80;;;21.67;;
55172;SDS011;41061;52.822;6.860;2023-05-07T04:10:43;34.90;;;22.10;;
55172;SDS011;41061;52.822;6.860;2023-05-07T04:13:08;33.20;;;22.05;;
55172;SDS011;41061;52.822;6.860;2023-05-07T04:15:35;36.28;;;23.02;;
55172;SDS011;41061;52.822;6.860;2023-05-07T04:18:01;30.23;;;20.52;;
55172;SDS011;41061;52.822;6.860;2023-05-07T04:20:27;32.13;;;20.73;;
55172;SDS011;41061;52.822;6.860;2023-05-07T04:22:52;32.83;;;21.38;;
55172;SDS011;41061;52.822;6.860;2023-05-07T04:25:18;32.63;;;21.25;;
55172;SDS011;41061;52.822;6.860;2023-05-07T04:27:44;31.98;;;20.45;;
55172;SDS011;41061;52.822;6.860;2023-05-07T04:30:10;32.80;;;20.90;;
55172;SDS011;41061;52.822;6.860;2023-05-07T04:32:36;31.60;;;20.50;;
55172;SDS011;41061;52.822;6.860;2023-05-07T04:35:02;27.52;;;19.52;;
55172;SDS011;41061;52.822;6.860;2023-05-07T04:37:28;29.60;;;20.17;;
55172;SDS011;41061;52.822;6.860;2023-05-07T04:39:54;31.85;;;20.52;;
55172;SDS011;41061;52.822;6.860;2023-05-07T04:42:19;33.00;;;19.92;;
55172;SDS011;41061;52.822;6.860;2023-05-07T04:44:45;28.67;;;19.65;;
55172;SDS011;41061;52.822;6.860;2023-05-07T04:47:11;27.77;;;17.88;;
55172;SDS011;41061;52.822;6.860;2023-05-07T04:49:38;28.70;;;19.45;;
55172;SDS011;41061;52.822;6.860;2023-05-07T04:52:04;28.25;;;19.05;;
55172;SDS011;41061;52.822;6.860;2023-05-07T04:54:30;28.38;;;18.38;;
55172;SDS011;41061;52.822;6.860;2023-05-07T04:56:55;29.73;;;18.92;;
55172;SDS011;41061;52.822;6.860;2023-05-07T04:59:21;27.90;;;18.48;;
55172;SDS011;41061;52.822;6.860;2023-05-07T05:01:47;26.73;;;18.95;;
55172;SDS011;41061;52.822;6.860;2023-05-07T05:04:13;27.73;;;19.48;;
55172;SDS011;41061;52.822;6.860;2023-05-07T05:06:39;26.23;;;19.27;;
55172;SDS011;41061;52.822;6.860;2023-05-07T05:09:04;25.92;;;18.00;;
55172;SDS011;41061;52.822;6.860;2023-05-07T05:11:31;28.80;;;18.65;;
55172;SDS011;41061;52.822;6.860;2023-05-07T05:13:58;26.77;;;18.17;;
55172;SDS011;41061;52.822;6.860;2023-05-07T05:16:24;25.73;;;19.08;;
55172;SDS011;41061;52.822;6.860;2023-05-07T05:18:50;27.25;;;18.17;;
55172;SDS011;41061;52.822;6.860;2023-05-07T05:21:17;29.52;;;18.48;;
55172;SDS011;41061;52.822;6.860;2023-05-07T05:23:43;30.90;;;19.42;;
55172;SDS011;41061;52.822;6.860;2023-05-07T05:26:08;26.02;;;18.75;;
55172;SDS011;41061;52.822;6.860;2023-05-07T05:28:35;24.85;;;17.95;;
55172;SDS011;41061;52.822;6.860;2023-05-07T05:31:00;25.83;;;17.67;;
55172;SDS011;41061;52.822;6.860;2023-05-07T05:33:26;31.27;;;19.15;;
55172;SDS011;41061;52.822;6.860;2023-05-07T05:35:53;26.90;;;18.90;;
55172;SDS011;41061;52.822;6.860;2023-05-07T05:38:19;28.50;;;19.10;;
55172;SDS011;41061;52.822;6.860;2023-05-07T05:40:46;28.90;;;19.38;;
55172;SDS011;41061;52.822;6.860;2023-05-07T05:43:11;30.75;;;19.50;;
55172;SDS011;41061;52.822;6.860;2023-05-07T05:45:38;27.85;;;19.33;;
55172;SDS011;41061;52.822;6.860;2023-05-07T05:48:05;28.88;;;19.33;;
55172;SDS011;41061;52.822;6.860;2023-05-07T05:50:31;28.15;;;19.27;;
55172;SDS011;41061;52.822;6.860;2023-05-07T05:52:56;27.17;;;19.13;;
55172;SDS011;41061;52.822;6.860;2023-05-07T05:55:23;28.42;;;19.92;;
55172;SDS011;41061;52.822;6.860;2023-05-07T05:57:49;25.35;;;18.35;;
55172;SDS011;41061;52.822;6.860;2023-05-07T06:00:15;29.13;;;20.30;;
55172;SDS011;41061;52.822;6.860;2023-05-07T06:02:41;31.08;;;20.13;;
55172;SDS011;41061;52.822;6.860;2023-05-07T06:05:08;25.55;;;19.08;;
55172;SDS011;41061;52.822;6.860;2023-05-07T06:07:34;28.17;;;18.77;;
55172;SDS011;41061;52.822;6.860;2023-05-07T06:10:03;28.30;;;19.27;;
55172;SDS011;41061;52.822;6.860;2023-05-07T06:12:32;31.50;;;20.48;;
55172;SDS011;41061;52.822;6.860;2023-05-07T06:14:57;26.58;;;19.73;;
55172;SDS011;41061;52.822;6.860;2023-05-07T06:17:23;28.73;;;19.55;;
55172;SDS011;41061;52.822;6.860;2023-05-07T06:19:49;33.22;;;20.77;;
55172;SDS011;41061;52.822;6.860;2023-05-07T06:22:14;31.60;;;21.13;;
55172;SDS011;41061;52.822;6.860;2023-05-07T06:24:40;31.88;;;20.33;;
55172;SDS011;41061;52.822;6.860;2023-05-07T06:27:06;35.47;;;20.58;;
55172;SDS011;41061;52.822;6.860;2023-05-07T06:29:32;26.90;;;19.92;;
55172;SDS011;41061;52.822;6.860;2023-05-07T06:32:11;29.95;;;20.70;;
55172;SDS011;41061;52.822;6.860;2023-05-07T06:34:39;30.58;;;19.88;;
55172;SDS011;41061;52.822;6.860;2023-05-07T06:37:06;27.25;;;19.67;;
55172;SDS011;41061;52.822;6.860;2023-05-07T06:39:32;31.60;;;21.77;;
55172;SDS011;41061;52.822;6.860;2023-05-07T06:41:59;29.88;;;20.48;;
55172;SDS011;41061;52.822;6.860;2023-05-07T06:44:25;29.35;;;20.33;;
55172;SDS011;41061;52.822;6.860;2023-05-07T06:46:51;30.40;;;21.60;;
55172;SDS011;41061;52.822;6.860;2023-05-07T06:49:17;30.88;;;19.98;;
55172;SDS011;41061;52.822;6.860;2023-05-07T06:51:43;33.03;;;21.25;;
55172;SDS011;41061;52.822;6.860;2023-05-07T06:54:08;32.13;;;22.20;;
55172;SDS011;41061;52.822;6.860;2023-05-07T06:56:35;30.15;;;21.38;;
55172;SDS011;41061;52.822;6.860;2023-05-07T06:59:01;33.75;;;22.17;;
55172;SDS011;41061;52.822;6.860;2023-05-07T07:01:27;31.55;;;21.02;;
55172;SDS011;41061;52.822;6.860;2023-05-07T07:03:53;29.50;;;20.48;;
55172;SDS011;41061;52.822;6.860;2023-05-07T07:06:19;30.42;;;21.33;;
55172;SDS011;41061;52.822;6.860;2023-05-07T07:08:45;30.05;;;21.83;;
55172;SDS011;41061;52.822;6.860;2023-05-07T07:11:11;36.15;;;22.35;;
55172;SDS011;41061;52.822;6.860;2023-05-07T07:13:37;28.48;;;20.23;;
55172;SDS011;41061;52.822;6.860;2023-05-07T07:16:02;30.33;;;21.10;;
55172;SDS011;41061;52.822;6.860;2023-05-07T07:18:28;32.97;;;22.10;;
55172;SDS011;41061;52.822;6.860;2023-05-07T07:20:54;29.13;;;20.60;;
55172;SDS011;41061;52.822;6.860;2023-05-07T07:23:20;31.17;;;21.60;;
55172;SDS011;41061;52.822;6.860;2023-05-07T07:25:46;30.73;;;20.70;;
55172;SDS011;41061;52.822;6.860;2023-05-07T07:28:12;28.17;;;21.08;;
55172;SDS011;41061;52.822;6.860;2023-05-07T07:30:38;30.10;;;21.35;;
55172;SDS011;41061;52.822;6.860;2023-05-07T07:33:04;33.90;;;22.40;;
55172;SDS011;41061;52.822;6.860;2023-05-07T07:35:30;36.38;;;22.63;;
55172;SDS011;41061;52.822;6.860;2023-05-07T07:37:56;33.17;;;23.13;;
55172;SDS011;41061;52.822;6.860;2023-05-07T07:40:22;32.40;;;21.38;;
55172;SDS011;41061;52.822;6.860;2023-05-07T07:42:48;32.42;;;22.20;;
55172;SDS011;41061;52.822;6.860;2023-05-07T07:45:14;28.10;;;20.50;;
55172;SDS011;41061;52.822;6.860;2023-05-07T07:47:40;30.90;;;21.50;;
55172;SDS011;41061;52.822;6.860;2023-05-07T07:50:06;32.75;;;22.02;;
55172;SDS011;41061;52.822;6.860;2023-05-07T07:52:32;32.35;;;22.63;;
55172;SDS011;41061;52.822;6.860;2023-05-07T07:54:58;29.75;;;21.42;;
55172;SDS011;41061;52.822;6.860;2023-05-07T07:57:24;33.78;;;22.10;;
55172;SDS011;41061;52.822;6.860;2023-05-07T07:59:50;30.63;;;22.05;;
55172;SDS011;41061;52.822;6.860;2023-05-07T08:02:16;33.80;;;22.70;;
55172;SDS011;41061;52.822;6.860;2023-05-07T08:04:42;33.17;;;21.95;;
55172;SDS011;41061;52.822;6.860;2023-05-07T08:07:09;30.85;;;22.70;;
55172;SDS011;41061;52.822;6.860;2023-05-07T08:09:35;31.17;;;22.05;;
55172;SDS011;41061;52.822;6.860;2023-05-07T08:12:02;30.27;;;21.85;;
55172;SDS011;41061;52.822;6.860;2023-05-07T08:14:28;31.77;;;22.13;;
55172;SDS011;41061;52.822;6.860;2023-05-07T08:16:54;28.90;;;21.67;;
55172;SDS011;41061;52.822;6.860;2023-05-07T08:19:20;31.25;;;21.10;;
55172;SDS011;41061;52.822;6.860;2023-05-07T08:21:46;30.23;;;21.85;;
55172;SDS011;41061;52.822;6.860;2023-05-07T08:24:15;29.75;;;21.27;;
55172;SDS011;41061;52.822;6.860;2023-05-07T08:26:43;28.98;;;21.15;;
55172;SDS011;41061;52.822;6.860;2023-05-07T08:29:10;31.60;;;21.33;;
55172;SDS011;41061;52.822;6.860;2023-05-07T08:31:36;25.65;;;19.73;;
55172;SDS011;41061;52.822;6.860;2023-05-07T08:34:03;30.17;;;20.42;;
55172;SDS011;41061;52.822;6.860;2023-05-07T08:36:30;32.13;;;20.67;;
55172;SDS011;41061;52.822;6.860;2023-05-07T08:38:55;28.27;;;19.80;;
55172;SDS011;41061;52.822;6.860;2023-05-07T08:41:21;29.45;;;20.77;;
55172;SDS011;41061;52.822;6.860;2023-05-07T08:43:48;28.98;;;21.23;;
55172;SDS011;41061;52.822;6.860;2023-05-07T08:46:19;26.50;;;19.55;;
55172;SDS011;41061;52.822;6.860;2023-05-07T08:48:49;26.63;;;19.73;;
55172;SDS011;41061;52.822;6.860;2023-05-07T08:51:16;27.42;;;18.70;;
55172;SDS011;41061;52.822;6.860;2023-05-07T08:53:46;25.23;;;18.42;;
55172;SDS011;41061;52.822;6.860;2023-05-07T08:56:14;27.15;;;17.95;;
55172;SDS011;41061;52.822;6.860;2023-05-07T08:58:41;22.85;;;18.30;;
55172;SDS011;41061;52.822;6.860;2023-05-07T09:01:12;23.05;;;17.60;;
55172;SDS011;41061;52.822;6.860;2023-05-07T09:03:39;25.30;;;18.70;;
55172;SDS011;41061;52.822;6.860;2023-05-07T09:06:05;26.27;;;18.50;;
55172;SDS011;41061;52.822;6.860;2023-05-07T09:08:32;23.08;;;17.95;;
55172;SDS011;41061;52.822;6.860;2023-05-07T09:10:59;25.25;;;18.30;;
55172;SDS011;41061;52.822;6.860;2023-05-07T09:13:25;27.05;;;18.45;;
55172;SDS011;41061;52.822;6.860;2023-05-07T09:15:52;24.33;;;17.23;;
55172;SDS011;41061;52.822;6.860;2023-05-07T09:18:17;21.83;;;17.10;;
55172;SDS011;41061;52.822;6.860;2023-05-07T09:20:43;23.30;;;17.88;;
55172;SDS011;41061;52.822;6.860;2023-05-07T09:23:12;23.13;;;16.88;;
55172;SDS011;41061;52.822;6.860;2023-05-07T09:25:38;21.65;;;16.35;;
55172;SDS011;41061;52.822;6.860;2023-05-07T09:28:04;23.20;;;16.80;;
55172;SDS011;41061;52.822;6.860;2023-05-07T09:30:35;20.92;;;16.02;;
55172;SDS011;41061;52.822;6.860;2023-05-07T09:33:02;19.77;;;15.48;;
55172;SDS011;41061;52.822;6.860;2023-05-07T09:35:29;21.63;;;16.75;;
55172;SDS011;41061;52.822;6.860;2023-05-07T09:37:59;20.38;;;14.95;;
55172;SDS011;41061;52.822;6.860;2023-05-07T09:40:26;20.45;;;15.43;;
55172;SDS011;41061;52.822;6.860;2023-05-07T09:42:53;21.65;;;16.67;;
55172;SDS011;41061;52.822;6.860;2023-05-07T09:45:29;21.67;;;15.88;;
55172;SDS011;41061;52.822;6.860;2023-05-07T09:47:55;18.92;;;14.45;;
55172;SDS011;41061;52.822;6.860;2023-05-07T09:50:27;23.33;;;15.43;;
55172;SDS011;41061;52.822;6.860;2023-05-07T09:52:55;19.25;;;15.25;;
55172;SDS011;41061;52.822;6.860;2023-05-07T09:55:21;19.52;;;15.18;;
55172;SDS011;41061;52.822;6.860;2023-05-07T09:57:51;18.42;;;14.55;;
55172;SDS011;41061;52.822;6.860;2023-05-07T10:00:21;17.38;;;14.45;;
55172;SDS011;41061;52.822;6.860;2023-05-07T10:02:51;17.77;;;14.95;;
55172;SDS011;41061;52.822;6.860;2023-05-07T10:05:17;18.60;;;15.15;;
55172;SDS011;41061;52.822;6.860;2023-05-07T10:07:45;22.70;;;15.48;;
55172;SDS011;41061;52.822;6.860;2023-05-07T10:10:11;17.30;;;14.38;;
55172;SDS011;41061;52.822;6.860;2023-05-07T10:12:37;21.23;;;15.23;;
55172;SDS011;41061;52.822;6.860;2023-05-07T10:15:08;17.90;;;14.27;;
55172;SDS011;41061;52.822;6.860;2023-05-07T10:17:36;17.30;;;13.82;;
55172;SDS011;41061;52.822;6.860;2023-05-07T10:20:03;16.73;;;14.15;;
55172;SDS011;41061;52.822;6.860;2023-05-07T10:22:31;19.33;;;14.43;;
55172;SDS011;41061;52.822;6.860;2023-05-07T10:25:17;18.15;;;14.48;;
55172;SDS011;41061;52.822;6.860;2023-05-07T10:27:46;19.08;;;14.57;;
55172;SDS011;41061;52.822;6.860;2023-05-07T10:33:15;19.13;;;14.70;;
55172;SDS011;41061;52.822;6.860;2023-05-07T10:35:45;17.63;;;14.35;;
55172;SDS011;41061;52.822;6.860;2023-05-07T10:38:12;18.15;;;13.95;;
55172;SDS011;41061;52.822;6.860;2023-05-07T10:40:38;18.52;;;14.57;;
55172;SDS011;41061;52.822;6.860;2023-05-07T10:43:05;19.65;;;14.88;;
55172;SDS011;41061;52.822;6.860;2023-05-07T10:45:31;16.50;;;14.00;;
55172;SDS011;41061;52.822;6.860;2023-05-07T10:50:40;19.88;;;14.85;;
55172;SDS011;41061;52.822;6.860;2023-05-07T10:55:49;18.20;;;15.32;;
55172;SDS011;41061;52.822;6.860;2023-05-07T10:58:33;20.38;;;15.57;;
55172;SDS011;41061;52.822;6.860;2023-05-07T11:01:01;20.05;;;15.88;;
55172;SDS011;41061;52.822;6.860;2023-05-07T11:03:28;17.88;;;14.30;;
55172;SDS011;41061;52.822;6.860;2023-05-07T11:06:14;18.23;;;13.80;;
55172;SDS011;41061;52.822;6.860;2023-05-07T11:08:53;17.98;;;14.20;;
55172;SDS011;41061;52.822;6.860;2023-05-07T11:17:07;16.67;;;13.50;;
55172;SDS011;41061;52.822;6.860;2023-05-07T11:19:53;20.42;;;14.90;;
55172;SDS011;41061;52.822;6.860;2023-05-07T11:25:02;16.85;;;13.90;;
55172;SDS011;41061;52.822;6.860;2023-05-07T11:27:29;18.75;;;15.10;;
55172;SDS011;41061;52.822;6.860;2023-05-07T11:29:55;21.45;;;14.75;;
55172;SDS011;41061;52.822;6.860;2023-05-07T11:32:25;16.83;;;14.45;;
55172;SDS011;41061;52.822;6.860;2023-05-07T11:34:55;18.85;;;14.18;;
55172;SDS011;41061;52.822;6.860;2023-05-07T11:37:23;16.50;;;13.23;;
55172;SDS011;41061;52.822;6.860;2023-05-07T11:39:49;16.65;;;13.50;;
55172;SDS011;41061;52.822;6.860;2023-05-07T11:42:30;16.15;;;13.20;;
55172;SDS011;41061;52.822;6.860;2023-05-07T11:44:57;16.75;;;12.70;;
55172;SDS011;41061;52.822;6.860;2023-05-07T11:47:23;15.68;;;13.40;;
55172;SDS011;41061;52.822;6.860;2023-05-07T11:49:51;16.00;;;11.55;;
55172;SDS011;41061;52.822;6.860;2023-05-07T11:52:19;14.55;;;12.35;;
55172;SDS011;41061;52.822;6.860;2023-05-07T11:54:49;19.98;;;14.15;;
55172;SDS011;41061;52.822;6.860;2023-05-07T11:57:16;17.00;;;13.48;;
55172;SDS011;41061;52.822;6.860;2023-05-07T11:59:42;18.10;;;12.05;;
55172;SDS011;41061;52.822;6.860;2023-05-07T12:02:09;13.95;;;11.75;;
55172;SDS011;41061;52.822;6.860;2023-05-07T12:04:35;16.75;;;12.13;;
55172;SDS011;41061;52.822;6.860;2023-05-07T12:07:03;14.63;;;11.82;;
55172;SDS011;41061;52.822;6.860;2023-05-07T12:09:28;14.50;;;12.93;;
55172;SDS011;41061;52.822;6.860;2023-05-07T12:11:54;20.88;;;12.02;;
55172;SDS011;41061;52.822;6.860;2023-05-07T12:14:21;14.25;;;11.25;;
55172;SDS011;41061;52.822;6.860;2023-05-07T12:16:47;14.38;;;11.77;;
55172;SDS011;41061;52.822;6.860;2023-05-07T12:19:13;15.35;;;12.15;;
55172;SDS011;41061;52.822;6.860;2023-05-07T12:21:39;14.02;;;11.50;;
55172;SDS011;41061;52.822;6.860;2023-05-07T12:24:05;18.27;;;11.20;;
55172;SDS011;41061;52.822;6.860;2023-05-07T12:26:36;13.63;;;10.98;;
55172;SDS011;41061;52.822;6.860;2023-05-07T12:29:03;13.52;;;10.88;;
55172;SDS011;41061;52.822;6.860;2023-05-07T12:31:29;13.57;;;10.98;;
55172;SDS011;41061;52.822;6.860;2023-05-07T12:33:55;15.30;;;12.23;;
55172;SDS011;41061;52.822;6.860;2023-05-07T12:36:21;12.93;;;11.48;;
55172;SDS011;41061;52.822;6.860;2023-05-07T12:38:49;14.13;;;11.35;;
55172;SDS011;41061;52.822;6.860;2023-05-07T12:41:15;14.75;;;11.65;;
55172;SDS011;41061;52.822;6.860;2023-05-07T12:43:43;15.60;;;11.35;;
55172;SDS011;41061;52.822;6.860;2023-05-07T12:46:10;23.13;;;12.77;;
55172;SDS011;41061;52.822;6.860;2023-05-07T12:48:38;13.77;;;11.70;;
55172;SDS011;41061;52.822;6.860;2023-05-07T12:51:10;16.13;;;11.68;;
55172;SDS011;41061;52.822;6.860;2023-05-07T12:53:41;13.68;;;11.85;;
55172;SDS011;41061;52.822;6.860;2023-05-07T12:56:07;15.18;;;12.05;;
55172;SDS011;41061;52.822;6.860;2023-05-07T12:58:34;14.02;;;11.35;;
55172;SDS011;41061;52.822;6.860;2023-05-07T13:01:04;16.33;;;11.27;;
55172;SDS011;41061;52.822;6.860;2023-05-07T13:03:32;13.75;;;11.63;;
55172;SDS011;41061;52.822;6.860;2023-05-07T13:06:00;12.32;;;11.02;;
55172;SDS011;41061;52.822;6.860;2023-05-07T13:08:31;13.60;;;11.07;;
55172;SDS011;41061;52.822;6.860;2023-05-07T13:11:01;13.50;;;11.48;;
55172;SDS011;41061;52.822;6.860;2023-05-07T13:13:32;15.45;;;10.45;;
55172;SDS011;41061;52.822;6.860;2023-05-07T13:15:59;14.52;;;11.48;;
55172;SDS011;41061;52.822;6.860;2023-05-07T13:18:25;14.00;;;10.88;;
55172;SDS011;41061;52.822;6.860;2023-05-07T13:20:52;15.43;;;11.35;;
55172;SDS011;41061;52.822;6.860;2023-05-07T13:23:18;12.80;;;11.32;;
55172;SDS011;41061;52.822;6.860;2023-05-07T13:25:44;12.98;;;10.98;;
55172;SDS011;41061;52.822;6.860;2023-05-07T13:28:10;12.95;;;10.95;;
55172;SDS011;41061;52.822;6.860;2023-05-07T13:30:36;13.07;;;11.18;;
55172;SDS011;41061;52.822;6.860;2023-05-07T13:33:02;20.20;;;10.50;;
55172;SDS011;41061;52.822;6.860;2023-05-07T13:35:28;13.27;;;10.48;;
55172;SDS011;41061;52.822;6.860;2023-05-07T13:37:54;11.15;;;9.77;;
55172;SDS011;41061;52.822;6.860;2023-05-07T13:40:23;12.80;;;10.73;;
55172;SDS011;41061;52.822;6.860;2023-05-07T13:42:49;12.60;;;10.90;;
55172;SDS011;41061;52.822;6.860;2023-05-07T13:45:16;16.92;;;10.38;;
55172;SDS011;41061;52.822;6.860;2023-05-07T13:47:43;14.35;;;9.75;;
55172;SDS011;41061;52.822;6.860;2023-05-07T13:50:09;10.75;;;8.90;;
55172;SDS011;41061;52.822;6.860;2023-05-07T13:52:37;11.20;;;9.15;;
55172;SDS011;41061;52.822;6.860;2023-05-07T13:55:03;13.02;;;9.57;;
55172;SDS011;41061;52.822;6.860;2023-05-07T13:57:29;13.77;;;10.00;;
55172;SDS011;41061;52.822;6.860;2023-05-07T13:59:55;10.73;;;9.63;;
55172;SDS011;41061;52.822;6.860;2023-05-07T14:02:20;10.30;;;9.25;;
55172;SDS011;41061;52.822;6.860;2023-05-07T14:04:46;10.38;;;9.27;;
55172;SDS011;41061;52.822;6.860;2023-05-07T14:07:12;12.27;;;9.35;;
55172;SDS011;41061;52.822;6.860;2023-05-07T14:09:37;10.25;;;9.18;;
55172;SDS011;41061;52.822;6.860;2023-05-07T14:12:03;11.07;;;9.70;;
55172;SDS011;41061;52.822;6.860;2023-05-07T14:14:29;10.05;;;9.05;;
55172;SDS011;41061;52.822;6.860;2023-05-07T14:16:55;10.55;;;9.15;;
55172;SDS011;41061;52.822;6.860;2023-05-07T14:19:21;10.02;;;8.85;;
55172;SDS011;41061;52.822;6.860;2023-05-07T14:21:47;10.15;;;9.00;;
55172;SDS011;41061;52.822;6.860;2023-05-07T14:24:16;11.55;;;8.75;;
55172;SDS011;41061;52.822;6.860;2023-05-07T14:26:41;10.88;;;8.88;;
55172;SDS011;41061;52.822;6.860;2023-05-07T14:29:07;10.65;;;9.05;;
55172;SDS011;41061;52.822;6.860;2023-05-07T14:31:33;13.73;;;9.40;;
55172;SDS011;41061;52.822;6.860;2023-05-07T14:33:58;10.82;;;9.30;;
55172;SDS011;41061;52.822;6.860;2023-05-07T14:36:24;9.90;;;8.90;;
55172;SDS011;41061;52.822;6.860;2023-05-07T14:38:55;11.07;;;8.32;;